Time;durP1;ratioP1;P1;durP2;ratioP2;P2;SDS_P1;SDS_P2;PMS_P1;PMS_P2;Temp;Humidity;BMP_temperature;BMP_pressure;BME280_temperature;BME280_humidity;BME280_pressure;Samples;Min_cycle;Max_cycle;Signal;HPM_P1;HPM_P2
2023/08/10 00:02:30;;;;;;;1.90;1.08;;;21.60;59.50;;;;;;6267792;28;20036;-69
2023/08/10 00:05:31;;;;;;;1.33;0.63;;;21.60;59.50;;;;;;6267660;28;20129;-69
2023/08/10 00:08:32;;;;;;;1.20;0.70;;;21.60;59.50;;;;;;6268997;28;20583;-69
2023/08/10 00:11:33;;;;;;;1.20;0.70;;;21.60;59.50;;;;;;6272726;28;20056;-69
2023/08/10 00:14:34;;;;;;;1.15;0.70;;;21.60;59.50;;;;;;6272111;28;20212;-69
2023/08/10 00:17:35;;;;;;;1.63;1.00;;;21.60;59.50;;;;;;6272502;28;20028;-70
2023/08/10 00:20:36;;;;;;;1.10;0.70;;;21.60;59.50;;;;;;6271953;28;20032;-70
2023/08/10 00:23:36;;;;;;;0.77;0.70;;;21.60;59.50;;;;;;6272300;28;20040;-70
2023/08/10 00:26:38;;;;;;;1.48;0.95;;;21.60;59.60;;;;;;6271652;28;20021;-69
2023/08/10 00:29:38;;;;;;;0.82;0.60;;;21.60;59.60;;;;;;6272130;28;20107;-69
2023/08/10 00:32:39;;;;;;;1.00;0.60;;;21.60;59.60;;;;;;6271924;28;20029;-69
2023/08/10 00:35:40;;;;;;;1.63;1.00;;;21.60;59.60;;;;;;6271937;28;20025;-69
2023/08/10 00:38:41;;;;;;;1.02;0.75;;;21.60;59.60;;;;;;6271961;28;20567;-69
2023/08/10 00:41:42;;;;;;;1.67;0.98;;;21.60;59.60;;;;;;6271928;28;20021;-69
2023/08/10 00:44:43;;;;;;;1.27;0.70;;;21.60;59.60;;;;;;6271664;28;20087;-69
2023/08/10 00:47:44;;;;;;;1.05;0.77;;;21.60;59.60;;;;;;6271494;28;20033;-70
2023/08/10 00:50:44;;;;;;;1.10;0.77;;;21.60;59.60;;;;;;6271256;28;20035;-69
2023/08/10 00:53:45;;;;;;;1.25;1.00;;;21.60;59.60;;;;;;6271420;28;20447;-69
2023/08/10 00:56:46;;;;;;;1.70;0.85;;;21.60;59.60;;;;;;6253634;28;20061;-69
2023/08/10 00:59:47;;;;;;;1.10;0.70;;;21.60;59.60;;;;;;6253164;28;20485;-69
2023/08/10 01:02:48;;;;;;;1.83;0.90;;;21.60;59.60;;;;;;6252968;28;20562;-69
2023/08/10 01:06:08;;;;;;;1.30;0.90;;;21.60;59.60;;;;;;6271147;28;20051;-69
2023/08/10 01:09:19;;;;;;;1.10;0.73;;;21.60;59.60;;;;;;6253122;28;20514;-69
2023/08/10 01:12:32;;;;;;;1.20;0.80;;;21.60;59.60;;;;;;6253153;28;20121;-69
2023/08/10 01:15:46;;;;;;;1.30;0.80;;;21.60;59.60;;;;;;6270956;28;20737;-69
2023/08/10 01:18:48;;;;;;;1.30;0.68;;;21.60;59.60;;;;;;6270585;28;20083;-69
2023/08/10 01:22:02;;;;;;;1.17;0.80;;;21.60;59.60;;;;;;6270361;28;20017;-69
2023/08/10 01:25:08;;;;;;;1.05;0.70;;;21.60;59.60;;;;;;6253395;28;20193;-69
2023/08/10 01:28:12;;;;;;;1.13;0.70;;;21.60;59.60;;;;;;6269967;28;20037;-69
2023/08/10 01:31:14;;;;;;;1.30;1.00;;;21.60;59.60;;;;;;6270635;28;20029;-69
2023/08/10 01:34:15;;;;;;;0.80;0.70;;;21.60;59.60;;;;;;6270388;28;20405;-69
2023/08/10 01:37:15;;;;;;;0.60;0.60;;;21.60;59.60;;;;;;6252435;28;20056;-69
2023/08/10 01:40:17;;;;;;;0.82;0.63;;;21.60;59.60;;;;;;6270689;28;20090;-69
2023/08/10 01:43:17;;;;;;;0.95;0.70;;;21.60;59.60;;;;;;6270316;28;20028;-69
2023/08/10 01:46:21;;;;;;;0.77;0.60;;;21.60;59.60;;;;;;6270312;28;20036;-69
2023/08/10 01:49:24;;;;;;;0.80;0.80;;;21.60;59.60;;;;;;6244062;28;20053;-70
2023/08/10 01:52:30;;;;;;;1.30;0.80;;;21.60;59.60;;;;;;6252591;28;20033;-70
2023/08/10 01:55:30;;;;;;;0.85;0.77;;;21.60;59.60;;;;;;6270054;28;20036;-69
2023/08/10 01:58:31;;;;;;;0.70;0.50;;;21.60;59.60;;;;;;6269689;28;20037;-70
2023/08/10 02:01:32;;;;;;;1.08;0.80;;;21.60;59.60;;;;;;6252017;28;20112;-70
2023/08/10 02:04:33;;;;;;;0.75;0.68;;;21.60;59.70;;;;;;6269744;28;20716;-69
2023/08/10 02:07:33;;;;;;;0.90;0.60;;;21.60;59.60;;;;;;6269653;28;20037;-69
2023/08/10 02:10:34;;;;;;;1.10;0.75;;;21.60;59.60;;;;;;6243566;28;20037;-69
2023/08/10 02:13:35;;;;;;;0.90;0.65;;;21.60;59.60;;;;;;6241235;28;20039;-69
2023/08/10 02:16:36;;;;;;;1.30;0.75;;;21.60;59.60;;;;;;6269924;28;20029;-69
2023/08/10 02:19:37;;;;;;;0.60;0.60;;;21.60;59.60;;;;;;6269363;28;20071;-69
2023/08/10 02:22:45;;;;;;;1.08;0.75;;;21.60;60.40;;;;;;6269430;28;20036;-69
2023/08/10 02:25:45;;;;;;;0.80;0.60;;;21.60;59.70;;;;;;6269207;28;20044;-69
2023/08/10 02:28:46;;;;;;;0.90;0.60;;;21.60;59.60;;;;;;6251319;28;20056;-69
2023/08/10 02:31:47;;;;;;;1.60;0.80;;;21.60;59.70;;;;;;6268705;28;20107;-69
2023/08/10 02:34:47;;;;;;;1.33;0.80;;;21.60;59.60;;;;;;6268949;28;20033;-69
2023/08/10 02:37:48;;;;;;;0.90;0.70;;;21.60;59.70;;;;;;6269078;28;20092;-69
2023/08/10 02:40:49;;;;;;;0.88;0.60;;;21.60;59.70;;;;;;6268791;28;20024;-69
2023/08/10 02:43:49;;;;;;;0.63;0.60;;;21.60;59.60;;;;;;6268964;28;20107;-69
2023/08/10 02:46:50;;;;;;;0.73;0.55;;;21.60;59.60;;;;;;6268752;28;20124;-69
2023/08/10 02:49:51;;;;;;;0.80;0.65;;;21.60;59.70;;;;;;6268688;28;20025;-69
2023/08/10 02:52:51;;;;;;;0.82;0.77;;;21.60;59.70;;;;;;6268173;28;20094;-69
2023/08/10 02:55:53;;;;;;;0.82;0.70;;;21.60;59.70;;;;;;6251096;28;20033;-70
2023/08/10 02:58:53;;;;;;;0.63;0.50;;;21.60;59.60;;;;;;6268758;28;20107;-69
2023/08/10 03:01:55;;;;;;;0.75;0.60;;;21.60;59.70;;;;;;6268479;28;20551;-69
2023/08/10 03:04:55;;;;;;;0.63;0.52;;;21.60;59.70;;;;;;6268282;28;20047;-69
2023/08/10 03:07:56;;;;;;;0.70;0.65;;;21.60;59.70;;;;;;6268281;28;20041;-69
2023/08/10 03:10:57;;;;;;;0.85;0.60;;;21.50;59.60;;;;;;6268538;28;20029;-69
2023/08/10 03:13:57;;;;;;;0.52;0.50;;;21.60;59.70;;;;;;6250248;28;20029;-70
2023/08/10 03:16:59;;;;;;;0.52;0.50;;;21.60;59.70;;;;;;6250666;28;20398;-69
2023/08/10 03:19:59;;;;;;;0.88;0.70;;;21.60;59.70;;;;;;6268592;28;20032;-69
2023/08/10 03:23:00;;;;;;;1.05;0.80;;;21.60;59.70;;;;;;6268018;28;20033;-69
2023/08/10 03:26:01;;;;;;;0.77;0.65;;;21.60;59.60;;;;;;6261751;28;20071;-69
2023/08/10 03:29:01;;;;;;;1.05;0.60;;;21.60;59.60;;;;;;6267929;28;20029;-69
2023/08/10 03:32:02;;;;;;;0.90;0.50;;;21.60;59.70;;;;;;6268198;28;20044;-69
2023/08/10 03:35:03;;;;;;;1.08;0.80;;;21.60;59.70;;;;;;6267655;28;20087;-70
2023/08/10 03:38:04;;;;;;;1.20;0.90;;;21.60;59.70;;;;;;6268051;28;20110;-69
2023/08/10 03:41:05;;;;;;;1.17;0.73;;;21.60;59.60;;;;;;6268048;28;20033;-69
2023/08/10 03:44:06;;;;;;;0.95;0.52;;;21.50;59.60;;;;;;6270264;28;20578;-69
2023/08/10 03:47:07;;;;;;;1.10;0.68;;;21.60;59.60;;;;;;6272691;28;20044;-69
2023/08/10 03:50:10;;;;;;;1.25;0.80;;;21.60;59.70;;;;;;6273182;28;20551;-69
2023/08/10 03:53:10;;;;;;;0.60;0.60;;;21.60;59.70;;;;;;6254853;28;20033;-70
2023/08/10 03:56:11;;;;;;;0.80;0.57;;;21.60;59.60;;;;;;6272988;28;20032;-69
2023/08/10 04:03:10;;;;;;;0.80;0.70;;;21.60;59.70;;;;;;6272830;28;20041;-69
2023/08/10 04:06:10;;;;;;;0.70;0.63;;;21.50;59.60;;;;;;6254180;28;20049;-69
2023/08/10 04:09:11;;;;;;;0.70;0.50;;;21.60;59.70;;;;;;6272734;28;20478;-69
2023/08/10 04:12:12;;;;;;;1.02;0.70;;;21.60;59.70;;;;;;6272605;28;20029;-69
2023/08/10 04:15:13;;;;;;;0.93;0.60;;;21.50;59.60;;;;;;6272401;28;20633;-70
2023/08/10 04:18:13;;;;;;;1.10;0.80;;;21.50;59.60;;;;;;6272242;28;20037;-70
2023/08/10 04:21:14;;;;;;;0.57;0.52;;;21.60;59.70;;;;;;6272462;28;20091;-69
2023/08/10 04:24:15;;;;;;;0.68;0.50;;;21.60;59.70;;;;;;6254287;28;20532;-70
2023/08/10 04:27:16;;;;;;;1.00;0.70;;;21.60;60.40;;;;;;6272238;28;20187;-70
2023/08/10 04:30:18;;;;;;;0.85;0.70;;;21.60;59.70;;;;;;6254222;28;20040;-70
2023/08/10 04:33:18;;;;;;;0.55;0.40;;;21.50;59.60;;;;;;6272067;28;20087;-69
2023/08/10 04:36:19;;;;;;;0.75;0.52;;;21.50;60.40;;;;;;6271863;28;20418;-69
2023/08/10 04:39:20;;;;;;;1.00;0.70;;;21.50;59.60;;;;;;6271840;28;20027;-70
2023/08/10 04:42:21;;;;;;;0.73;0.63;;;21.50;59.60;;;;;;6255335;28;20049;-67
2023/08/10 04:45:22;;;;;;;0.60;0.50;;;21.50;59.60;;;;;;6251182;28;20119;-67
2023/08/10 04:48:23;;;;;;;0.73;0.63;;;21.50;59.50;;;;;;6267133;28;20087;-68
2023/08/10 04:51:24;;;;;;;1.75;0.77;;;21.50;59.50;;;;;;6270435;28;20029;-67
2023/08/10 04:54:24;;;;;;;1.00;0.82;;;21.50;59.10;;;;;;6269743;28;20401;-67
2023/08/10 04:57:26;;;;;;;3.53;0.73;;;21.50;58.80;;;;;;6248601;28;20482;-67
2023/08/10 05:00:26;;;;;;;1.45;0.88;;;21.50;59.00;;;;;;6269907;28;20017;-67
2023/08/10 05:03:27;;;;;;;4.10;1.30;;;21.50;58.50;;;;;;6269674;28;20098;-68
2023/08/10 05:06:28;;;;;;;4.00;1.27;;;21.50;58.10;;;;;;6260909;28;20541;-67
2023/08/10 05:09:28;;;;;;;2.00;1.20;;;21.50;58.00;;;;;;6252303;28;20048;-67
2023/08/10 05:12:29;;;;;;;2.00;1.02;;;21.50;58.00;;;;;;6251313;28;20726;-68
2023/08/10 05:15:30;;;;;;;2.40;0.90;;;21.50;57.70;;;;;;6260280;28;20021;-67
2023/08/10 05:18:31;;;;;;;1.77;0.90;;;21.50;58.40;;;;;;6251676;28;20522;-70
2023/08/10 05:21:31;;;;;;;1.70;0.98;;;21.50;58.60;;;;;;6270186;28;20394;-69
2023/08/10 05:24:32;;;;;;;3.13;1.58;;;21.50;58.50;;;;;;6269571;28;20028;-70
2023/08/10 05:27:33;;;;;;;2.38;1.35;;;21.50;57.50;;;;;;6269900;28;20406;-69
2023/08/10 05:30:34;;;;;;;1.88;0.90;;;21.50;58.00;;;;;;6269897;28;20112;-69
2023/08/10 05:33:34;;;;;;;2.92;1.40;;;21.50;57.90;;;;;;6270160;28;20239;-70
2023/08/10 05:36:35;;;;;;;2.33;1.25;;;21.50;58.40;;;;;;6243884;28;20060;-70
2023/08/10 05:39:38;;;;;;;2.13;1.17;;;21.50;58.50;;;;;;6261748;28;20129;-70
2023/08/10 05:42:40;;;;;;;2.75;1.40;;;21.50;58.50;;;;;;6270056;28;20036;-70
2023/08/10 05:45:41;;;;;;;3.13;1.33;;;21.60;58.50;;;;;;6248428;28;20120;-70
2023/08/10 05:48:42;;;;;;;2.53;1.55;;;21.50;58.50;;;;;;6268802;28;20033;-70
2023/08/10 05:51:42;;;;;;;2.50;1.10;;;21.50;58.60;;;;;;6269480;28;20105;-70
2023/08/10 05:54:44;;;;;;;2.25;1.20;;;21.60;58.90;;;;;;6269298;28;20492;-69
2023/08/10 05:57:45;;;;;;;2.78;1.17;;;21.60;59.00;;;;;;6243770;28;20444;-69
2023/08/10 06:00:46;;;;;;;2.00;1.10;;;21.50;58.90;;;;;;6270007;28;20082;-70
2023/08/10 06:03:48;;;;;;;1.15;0.75;;;21.50;59.00;;;;;;6250023;28;20673;-70
2023/08/10 06:06:49;;;;;;;2.35;1.30;;;21.50;59.00;;;;;;6250080;28;20405;-70
2023/08/10 06:09:49;;;;;;;1.45;1.00;;;21.60;59.80;;;;;;6253288;28;20107;-70
2023/08/10 06:12:50;;;;;;;1.35;1.00;;;21.50;59.10;;;;;;6271207;28;20052;-71
2023/08/10 06:15:50;;;;;;;1.95;1.13;;;21.50;59.10;;;;;;6252499;28;20482;-70
2023/08/10 06:18:51;;;;;;;1.42;1.00;;;21.50;59.00;;;;;;6270985;28;20036;-70
2023/08/10 06:21:52;;;;;;;1.27;0.88;;;21.50;59.10;;;;;;6271154;28;20048;-70
2023/08/10 06:24:52;;;;;;;1.10;1.00;;;21.60;59.20;;;;;;6252853;28;20049;-70
2023/08/10 06:27:53;;;;;;;1.75;1.00;;;21.60;59.20;;;;;;6244894;28;20406;-70
2023/08/10 06:30:54;;;;;;;1.27;0.70;;;21.50;59.20;;;;;;6263848;28;20036;-69
2023/08/10 06:33:55;;;;;;;1.17;0.90;;;21.50;59.20;;;;;;6270086;28;20036;-70
2023/08/10 06:36:55;;;;;;;1.20;0.85;;;21.50;59.20;;;;;;6270954;28;20540;-69
2023/08/10 06:39:57;;;;;;;1.00;0.90;;;21.60;59.30;;;;;;6270718;28;20075;-70
2023/08/10 06:42:58;;;;;;;2.47;1.10;;;21.50;59.30;;;;;;6253133;28;20033;-69
2023/08/10 06:45:59;;;;;;;1.77;1.23;;;21.50;59.30;;;;;;6252151;28;20029;-70
2023/08/10 06:49:00;;;;;;;1.63;1.10;;;21.50;59.30;;;;;;6270328;28;20036;-69
2023/08/10 06:52:01;;;;;;;1.67;0.70;;;21.50;59.30;;;;;;6252071;28;20032;-70
2023/08/10 06:55:02;;;;;;;2.13;1.20;;;21.50;59.30;;;;;;6270093;28;20040;-70
2023/08/10 06:58:03;;;;;;;1.63;0.80;;;21.50;59.30;;;;;;6270612;28;20021;-70
2023/08/10 07:01:05;;;;;;;1.42;1.15;;;21.50;59.40;;;;;;6270172;28;20036;-70
2023/08/10 07:04:06;;;;;;;0.85;0.80;;;21.50;59.30;;;;;;6261983;28;20032;-70
2023/08/10 07:07:07;;;;;;;3.55;0.90;;;21.60;59.70;;;;;;6258647;28;20025;-70
2023/08/10 07:10:09;;;;;;;2.08;1.00;;;21.60;59.60;;;;;;6269716;28;20036;-70
2023/08/10 07:13:09;;;;;;;0.95;0.73;;;21.60;59.50;;;;;;6251809;28;20036;-70
2023/08/10 07:16:10;;;;;;;0.80;0.63;;;21.60;59.30;;;;;;6269643;28;20032;-70
2023/08/10 07:19:11;;;;;;;1.10;0.85;;;21.60;59.30;;;;;;6270078;28;20087;-69
2023/08/10 07:22:11;;;;;;;0.90;0.80;;;21.70;59.20;;;;;;6269126;28;20029;-69
2023/08/10 07:25:12;;;;;;;0.82;0.60;;;21.70;59.30;;;;;;6269781;28;20036;-70
2023/08/10 07:28:14;;;;;;;1.33;0.90;;;21.70;59.20;;;;;;6243813;28;20406;-69
2023/08/10 07:31:15;;;;;;;2.53;0.93;;;21.70;59.20;;;;;;6240204;28;20037;-69
2023/08/10 07:34:16;;;;;;;0.95;0.60;;;21.70;59.10;;;;;;6269743;28;20481;-70
2023/08/10 07:37:17;;;;;;;0.80;0.65;;;21.70;59.40;;;;;;6247481;28;20026;-70
2023/08/10 07:40:17;;;;;;;1.13;0.80;;;21.70;59.50;;;;;;6269464;28;20029;-70
2023/08/10 07:43:18;;;;;;;1.23;0.80;;;21.70;59.40;;;;;;6269983;28;20084;-70
2023/08/10 07:46:19;;;;;;;1.58;1.00;;;21.70;59.50;;;;;;6267593;28;20028;-70
2023/08/10 07:49:20;;;;;;;1.45;0.80;;;21.60;59.50;;;;;;6266504;28;20100;-70
2023/08/10 07:52:20;;;;;;;1.38;0.90;;;21.60;59.50;;;;;;6264562;28;20762;-70
2023/08/10 07:55:21;;;;;;;1.52;0.88;;;21.60;59.50;;;;;;6269353;28;20041;-69
2023/08/10 07:58:22;;;;;;;1.42;0.88;;;21.60;59.50;;;;;;6269346;28;20033;-70
2023/08/10 08:01:23;;;;;;;1.05;0.70;;;21.60;59.50;;;;;;6269303;28;20532;-70
2023/08/10 08:04:23;;;;;;;1.13;0.90;;;21.60;59.50;;;;;;6268871;28;20106;-70
2023/08/10 08:07:25;;;;;;;1.48;0.77;;;21.60;59.50;;;;;;6251286;28;20041;-70
2023/08/10 08:10:26;;;;;;;0.88;0.70;;;21.60;59.50;;;;;;6268923;28;20119;-70
2023/08/10 08:13:27;;;;;;;1.13;0.68;;;21.60;59.50;;;;;;6269497;28;20029;-71
2023/08/10 08:16:28;;;;;;;0.60;0.60;;;21.60;59.50;;;;;;6268807;28;20108;-70
2023/08/10 08:19:29;;;;;;;1.10;0.73;;;21.60;59.60;;;;;;6269722;28;20506;-70
2023/08/10 08:22:30;;;;;;;1.25;0.80;;;21.60;59.60;;;;;;6268688;28;20090;-70
2023/08/10 08:25:30;;;;;;;0.95;0.70;;;21.60;59.60;;;;;;6269487;28;20099;-70
2023/08/10 08:28:31;;;;;;;0.82;0.80;;;21.60;59.50;;;;;;6268622;28;20501;-68
2023/08/10 08:31:33;;;;;;;0.85;0.60;;;21.60;59.60;;;;;;6273088;28;20037;-66
2023/08/10 08:34:36;;;;;;;3.85;0.82;;;21.60;59.50;;;;;;6272693;28;20055;-67
2023/08/10 08:37:36;;;;;;;10.05;1.17;;;21.60;59.50;;;;;;6265648;28;20029;-69
2023/08/10 08:40:37;;;;;;;10.40;1.00;;;21.70;60.40;;;;;;6273308;28;20071;-69
2023/08/10 08:43:39;;;;;;;19.90;1.40;;;21.70;59.70;;;;;;6255214;28;20041;-68
2023/08/10 08:46:43;;;;;;;5.72;1.08;;;21.70;59.80;;;;;;6272587;28;20744;-68
2023/08/10 08:49:44;;;;;;;6.40;1.10;;;21.70;61.60;;;;;;6273601;28;20049;-69
2023/08/10 08:52:46;;;;;;;4.57;1.17;;;21.70;60.20;;;;;;6254890;28;20086;-69
2023/08/10 08:55:47;;;;;;;3.72;0.75;;;21.70;59.90;;;;;;6253738;28;20037;-70
2023/08/10 08:58:49;;;;;;;4.75;0.90;;;21.70;60.10;;;;;;6267521;28;20053;-69
2023/08/10 09:01:50;;;;;;;1.55;0.82;;;21.60;59.70;;;;;;6249153;28;20352;-70
2023/08/10 09:04:54;;;;;;;8.25;1.00;;;21.60;59.80;;;;;;6271042;28;20048;-69
2023/08/10 09:07:55;;;;;;;9.40;1.10;;;21.60;59.80;;;;;;6267164;28;20025;-69
2023/08/10 09:10:56;;;;;;;6.13;1.42;;;21.60;59.60;;;;;;6255011;28;20065;-70
2023/08/10 09:14:08;;;;;;;4.30;0.90;;;21.60;59.20;;;;;;6272179;28;20123;-69
2023/08/10 09:17:08;;;;;;;4.10;1.52;;;21.60;59.00;;;;;;6272575;28;20556;-68
2023/08/10 09:20:10;;;;;;;4.50;0.80;;;21.60;58.20;;;;;;6272793;28;20025;-68
2023/08/10 09:23:18;;;;;;;3.53;0.90;;;21.60;58.50;;;;;;6264126;28;20108;-69
2023/08/10 09:26:21;;;;;;;7.57;1.15;;;21.60;58.70;;;;;;6255129;28;20037;-71
2023/08/10 09:29:29;;;;;;;3.65;1.00;;;21.60;58.50;;;;;;6272415;28;20386;-71
2023/08/10 09:32:30;;;;;;;3.15;1.20;;;21.60;58.50;;;;;;6272263;28;20040;-70
2023/08/10 09:35:31;;;;;;;2.83;0.85;;;21.60;58.20;;;;;;6250207;28;20029;-69
2023/08/10 09:38:32;;;;;;;2.58;0.90;;;21.60;58.20;;;;;;6258082;28;20047;-71
2023/08/10 09:41:33;;;;;;;2.80;1.00;;;21.60;58.20;;;;;;6270175;28;20112;-69
2023/08/10 09:44:48;;;;;;;1.90;0.90;;;21.60;58.00;;;;;;6271503;28;20037;-70
2023/08/10 09:47:48;;;;;;;2.80;0.90;;;21.60;58.30;;;;;;6271481;28;20098;-69
2023/08/10 09:50:49;;;;;;;2.95;0.88;;;21.60;58.10;;;;;;6272304;28;20037;-69
2023/08/10 09:53:50;;;;;;;6.60;1.25;;;21.60;58.00;;;;;;6271535;28;20448;-71
2023/08/10 09:56:53;;;;;;;2.15;1.00;;;21.60;57.80;;;;;;6271850;28;20025;-69
2023/08/10 09:59:54;;;;;;;1.48;0.73;;;21.60;57.90;;;;;;6271992;28;20060;-70
2023/08/10 10:02:55;;;;;;;3.60;1.25;;;21.60;57.80;;;;;;6253717;28;20092;-69
2023/08/10 10:05:56;;;;;;;5.35;0.75;;;21.60;57.60;;;;;;6271711;28;20049;-69
2023/08/10 10:09:00;;;;;;;1.85;1.10;;;21.60;57.40;;;;;;6271857;28;20044;-69
2023/08/10 10:12:02;;;;;;;1.93;1.10;;;21.60;57.00;;;;;;6272414;28;20056;-69
2023/08/10 10:15:06;;;;;;;9.75;1.50;;;21.60;57.70;;;;;;6248505;28;20069;-70
2023/08/10 10:18:09;;;;;;;4.28;1.30;;;21.60;56.50;;;;;;6263203;28;20029;-70
2023/08/10 10:21:10;;;;;;;5.75;1.63;;;21.60;56.50;;;;;;6271549;28;20127;-71
2023/08/10 10:24:14;;;;;;;5.88;1.40;;;21.60;56.00;;;;;;6253001;28;20045;-69
2023/08/10 10:27:15;;;;;;;4.50;1.38;;;21.60;55.90;;;;;;6266580;28;20549;-69
2023/08/10 10:30:18;;;;;;;5.22;1.60;;;21.60;55.50;;;;;;6254013;28;20041;-69
2023/08/10 10:33:18;;;;;;;4.72;1.25;;;21.60;55.80;;;;;;6252596;28;20029;-71
2023/08/10 10:36:20;;;;;;;4.75;1.27;;;21.60;57.30;;;;;;6271196;28;20406;-68
2023/08/10 10:39:21;;;;;;;3.50;1.00;;;21.60;56.50;;;;;;6270420;28;20099;-69
2023/08/10 10:42:24;;;;;;;2.47;1.30;;;21.60;57.20;;;;;;6252747;28;20029;-69
2023/08/10 10:45:24;;;;;;;3.15;1.25;;;21.60;57.80;;;;;;6270412;28;20098;-68
2023/08/10 10:48:36;;;;;;;1.75;0.82;;;21.60;58.00;;;;;;6270563;28;20041;-68
2023/08/10 10:52:03;;;;;;;3.45;0.98;;;21.60;58.30;;;;;;6269912;28;20714;-69
2023/08/10 10:55:09;;;;;;;2.83;0.82;;;21.60;58.40;;;;;;6240483;28;20045;-69
2023/08/10 10:58:14;;;;;;;2.13;0.95;;;21.60;58.40;;;;;;6249789;28;20051;-69
2023/08/10 11:01:22;;;;;;;2.00;0.90;;;21.60;58.50;;;;;;6267243;28;20108;-69
2023/08/10 11:04:24;;;;;;;1.40;0.70;;;21.60;58.80;;;;;;6258103;28;20041;-69
2023/08/10 11:07:24;;;;;;;5.03;0.93;;;21.60;58.70;;;;;;6269553;28;20033;-69
2023/08/10 11:10:25;;;;;;;1.65;0.80;;;21.60;58.80;;;;;;6269564;28;20110;-69
2023/08/10 11:13:27;;;;;;;1.40;0.85;;;21.50;58.50;;;;;;6242403;28;20060;-69
2023/08/10 11:16:40;;;;;;;4.22;0.73;;;21.60;58.80;;;;;;6269320;28;20033;-69
2023/08/10 11:19:40;;;;;;;2.28;0.80;;;21.50;58.80;;;;;;6251397;28;20040;-69
2023/08/10 11:22:42;;;;;;;1.35;0.88;;;21.50;58.70;;;;;;6269060;28;20052;-68
2023/08/10 11:25:49;;;;;;;2.45;1.00;;;21.60;59.00;;;;;;6269276;28;20096;-69
2023/08/10 11:28:50;;;;;;;1.05;0.70;;;21.50;58.90;;;;;;6260035;28;20120;-69
2023/08/10 11:31:54;;;;;;;1.77;0.80;;;21.50;59.00;;;;;;6245831;28;20065;-69
2023/08/10 11:34:57;;;;;;;2.17;0.90;;;21.60;59.00;;;;;;6267392;28;20087;-69
2023/08/10 11:37:57;;;;;;;2.08;1.05;;;21.50;59.00;;;;;;6269045;28;20064;-69
2023/08/10 11:40:58;;;;;;;2.33;0.95;;;21.50;59.00;;;;;;6269043;28;20033;-69
2023/08/10 11:43:58;;;;;;;1.85;0.80;;;21.50;59.00;;;;;;6250439;28;20035;-69
2023/08/10 11:46:59;;;;;;;1.83;0.90;;;21.50;59.00;;;;;;6251331;28;20490;-68
2023/08/10 11:50:01;;;;;;;2.22;0.98;;;21.50;59.00;;;;;;6268504;28;20095;-69
2023/08/10 11:53:15;;;;;;;4.45;0.95;;;21.50;59.00;;;;;;6268194;28;20040;-69
2023/08/10 11:56:15;;;;;;;1.38;0.80;;;21.50;59.10;;;;;;6269056;28;20359;-69
2023/08/10 11:59:16;;;;;;;1.30;0.60;;;21.50;59.10;;;;;;6262116;28;20036;-69
2023/08/10 12:02:17;;;;;;;2.03;0.85;;;21.50;59.10;;;;;;6268813;28;20079;-69
2023/08/10 12:05:40;;;;;;;1.23;0.65;;;21.50;59.10;;;;;;6245071;28;20057;-68
2023/08/10 12:08:41;;;;;;;0.95;0.52;;;21.50;59.10;;;;;;6256764;28;20064;-69
2023/08/10 12:11:47;;;;;;;3.15;0.85;;;21.50;59.10;;;;;;6265175;28;20106;-69
2023/08/10 12:14:53;;;;;;;1.00;0.60;;;21.50;59.10;;;;;;6254616;28;20516;-69
2023/08/10 12:17:54;;;;;;;1.33;0.77;;;21.50;59.20;;;;;;6255174;28;20025;-69
2023/08/10 12:20:57;;;;;;;1.27;0.80;;;21.50;59.10;;;;;;6266385;28;20583;-69
2023/08/10 12:23:57;;;;;;;1.75;0.70;;;21.50;59.10;;;;;;6273209;28;20032;-68
2023/08/10 12:26:58;;;;;;;2.92;0.88;;;21.50;59.10;;;;;;6273220;28;20028;-69
2023/08/10 12:29:59;;;;;;;0.65;0.55;;;21.50;59.20;;;;;;6272752;28;20041;-69
2023/08/10 12:33:00;;;;;;;0.88;0.43;;;21.50;59.00;;;;;;6272574;28;20694;-69
2023/08/10 12:36:02;;;;;;;1.27;0.70;;;21.50;59.10;;;;;;6272602;28;20025;-69
2023/08/10 12:39:04;;;;;;;0.70;0.60;;;21.50;59.10;;;;;;6273080;28;20025;-69
2023/08/10 12:42:05;;;;;;;1.40;0.63;;;21.50;59.00;;;;;;6273007;28;20509;-68
2023/08/10 12:45:10;;;;;;;1.80;0.60;;;21.50;59.10;;;;;;6272255;28;20045;-69
2023/08/10 12:48:10;;;;;;;1.15;0.60;;;21.50;59.10;;;;;;6273253;28;20033;-68
2023/08/10 12:51:11;;;;;;;0.90;0.60;;;21.50;59.20;;;;;;6272540;28;20087;-70
2023/08/10 12:54:12;;;;;;;1.83;0.60;;;21.50;59.30;;;;;;6272137;28;20473;-69
2023/08/10 12:57:12;;;;;;;2.50;0.77;;;21.50;59.20;;;;;;6240954;28;20781;-70
2023/08/10 13:00:16;;;;;;;0.90;0.45;;;21.50;59.20;;;;;;6245139;28;20557;-69
2023/08/10 13:03:17;;;;;;;1.35;0.55;;;21.50;59.30;;;;;;6244759;28;20040;-69
2023/08/10 13:06:18;;;;;;;1.15;0.60;;;21.50;59.30;;;;;;6245820;28;20491;-70
2023/08/10 13:09:18;;;;;;;0.50;0.40;;;21.60;59.30;;;;;;6259803;28;20056;-70
2023/08/10 13:12:19;;;;;;;2.22;0.60;;;21.60;59.40;;;;;;6263378;28;20068;-70
2023/08/10 13:15:20;;;;;;;1.02;0.80;;;21.60;59.40;;;;;;6263734;28;20073;-69
2023/08/10 13:18:21;;;;;;;1.02;0.60;;;21.60;59.50;;;;;;6254001;28;20056;-69
2023/08/10 13:21:21;;;;;;;0.73;0.50;;;21.60;59.50;;;;;;6264698;28;20108;-70
2023/08/10 13:24:22;;;;;;;1.52;0.70;;;21.60;59.50;;;;;;6272282;28;20032;-70
2023/08/10 13:27:23;;;;;;;0.80;0.60;;;21.60;59.60;;;;;;6272621;28;20115;-70
2023/08/10 13:30:24;;;;;;;1.58;0.70;;;21.50;59.50;;;;;;6255059;28;20037;-70
2023/08/10 13:33:25;;;;;;;2.03;0.80;;;21.50;59.50;;;;;;6254318;28;20091;-70
2023/08/10 13:36:25;;;;;;;1.50;0.70;;;21.50;59.50;;;;;;6255107;28;20400;-70
2023/08/10 13:39:26;;;;;;;1.05;0.73;;;21.60;59.60;;;;;;6271437;28;20462;-69
2023/08/10 13:42:27;;;;;;;1.23;0.80;;;21.60;59.60;;;;;;6271505;28;20780;-69
2023/08/10 13:45:28;;;;;;;1.42;0.60;;;21.60;59.60;;;;;;6270572;28;20078;-68
2023/08/10 13:48:28;;;;;;;0.90;0.60;;;21.60;59.50;;;;;;6253596;28;20497;-68
2023/08/10 13:51:29;;;;;;;1.27;0.80;;;21.60;59.50;;;;;;6271320;28;20029;-70
2023/08/10 13:54:30;;;;;;;1.17;0.90;;;21.60;59.50;;;;;;6270694;28;20087;-70
2023/08/10 13:57:31;;;;;;;1.05;0.68;;;21.60;59.50;;;;;;6271016;28;20473;-69
2023/08/10 14:00:32;;;;;;;1.80;1.02;;;21.60;59.50;;;;;;6271134;28;20466;-69
2023/08/10 14:03:35;;;;;;;1.27;0.52;;;21.60;59.50;;;;;;6252500;28;20079;-69
2023/08/10 14:06:36;;;;;;;0.90;0.60;;;21.60;59.50;;;;;;6271475;28;20592;-69
2023/08/10 14:09:37;;;;;;;2.60;0.90;;;21.60;59.60;;;;;;6271940;28;20039;-70
2023/08/10 14:12:37;;;;;;;1.10;0.70;;;21.60;59.50;;;;;;6253908;28;20036;-70
2023/08/10 14:15:38;;;;;;;3.38;0.90;;;21.60;59.50;;;;;;6271392;28;20119;-70
2023/08/10 14:18:39;;;;;;;0.90;0.68;;;21.60;59.50;;;;;;6271374;28;20105;-70
2023/08/10 14:21:42;;;;;;;1.60;0.70;;;21.60;59.60;;;;;;6253344;28;20040;-70
2023/08/10 14:24:43;;;;;;;1.65;0.70;;;21.60;59.60;;;;;;6253755;28;20040;-69
2023/08/10 14:27:44;;;;;;;1.40;0.80;;;21.60;59.60;;;;;;6252880;28;20064;-70
2023/08/10 14:30:45;;;;;;;0.93;0.70;;;21.60;59.60;;;;;;6253616;28;20072;-70
2023/08/10 14:33:45;;;;;;;1.35;0.65;;;21.60;59.60;;;;;;6270621;28;20025;-70
2023/08/10 14:36:46;;;;;;;1.70;0.60;;;21.60;59.60;;;;;;6271228;28;20398;-70
2023/08/10 14:39:47;;;;;;;1.10;0.60;;;21.60;59.60;;;;;;6271255;28;20025;-69
2023/08/10 14:42:47;;;;;;;1.02;0.70;;;21.60;59.60;;;;;;6270786;28;20083;-70
2023/08/10 14:45:48;;;;;;;0.95;0.65;;;21.60;59.60;;;;;;6252504;28;20037;-69
2023/08/10 14:48:50;;;;;;;0.77;0.63;;;21.60;59.60;;;;;;6253271;28;20492;-70
2023/08/10 14:51:51;;;;;;;0.85;0.68;;;21.60;59.60;;;;;;6270768;28;20037;-69
2023/08/10 14:54:52;;;;;;;0.90;0.55;;;21.60;59.60;;;;;;6269878;28;20470;-69
2023/08/10 14:57:52;;;;;;;1.08;0.65;;;21.60;59.60;;;;;;6252682;28;20064;-69
2023/08/10 15:00:53;;;;;;;0.82;0.47;;;21.60;59.60;;;;;;6252649;28;20055;-73
2023/08/10 15:03:54;;;;;;;1.13;0.70;;;21.60;59.60;;;;;;6269176;28;20557;-71
2023/08/10 15:06:55;;;;;;;2.38;0.88;;;21.60;59.60;;;;;;6251686;28;20040;-71
2023/08/10 15:09:55;;;;;;;0.98;0.70;;;21.60;59.60;;;;;;6251636;28;20044;-70
2023/08/10 15:12:56;;;;;;;1.30;0.60;;;21.60;59.60;;;;;;6251267;28;20082;-72
2023/08/10 15:15:57;;;;;;;1.02;0.70;;;21.60;59.70;;;;;;6269439;28;20041;-70
2023/08/10 15:18:57;;;;;;;1.40;0.70;;;21.60;59.60;;;;;;6251125;28;20049;-71
2023/08/10 15:21:58;;;;;;;0.98;0.50;;;21.60;59.60;;;;;;6269733;28;20029;-71
2023/08/10 15:24:59;;;;;;;1.17;0.60;;;21.60;59.60;;;;;;6251162;28;20033;-70
2023/08/10 15:27:59;;;;;;;0.82;0.60;;;21.60;59.60;;;;;;6269566;28;20613;-70
2023/08/10 15:31:00;;;;;;;0.80;0.70;;;21.60;59.70;;;;;;6269892;28;20037;-70
2023/08/10 15:34:01;;;;;;;1.13;0.60;;;21.60;59.60;;;;;;6252033;28;20434;-69
2023/08/10 15:37:01;;;;;;;1.30;0.73;;;21.60;59.60;;;;;;6270219;28;20498;-70
2023/08/10 15:40:04;;;;;;;3.40;0.70;;;21.60;59.50;;;;;;6274402;28;20083;-69
2023/08/10 15:43:04;;;;;;;2.38;0.60;;;21.60;59.50;;;;;;6274861;28;20025;-71
2023/08/10 15:46:17;;;;;;;0.93;0.50;;;21.60;59.50;;;;;;6275024;28;20044;-70
2023/08/10 15:49:18;;;;;;;0.52;0.50;;;21.60;59.60;;;;;;6257144;28;20465;-70